sensor_id;sensor_type;location;lat;lon;timestamp;P1;durP1;ratioP1;P2;durP2;ratioP2
17947;SDS011;9099;47.958;11.366;2023-03-31T00:01:03;3.28;;;2.85;;
17947;SDS011;9099;47.958;11.366;2023-03-31T00:03:30;3.63;;;3.33;;
17947;SDS011;9099;47.958;11.366;2023-03-31T00:05:58;2.95;;;2.75;;
17947;SDS011;9099;47.958;11.366;2023-03-31T00:08:28;3.08;;;2.78;;
17947;SDS011;9099;47.958;11.366;2023-03-31T00:10:59;3.90;;;3.20;;
17947;SDS011;9099;47.958;11.366;2023-03-31T00:13:27;3.05;;;2.80;;
17947;SDS011;9099;47.958;11.366;2023-03-31T00:15:55;3.60;;;2.88;;
17947;SDS011;9099;47.958;11.366;2023-03-31T00:18:23;3.10;;;2.85;;
17947;SDS011;9099;47.958;11.366;2023-03-31T00:20:50;3.25;;;2.80;;
17947;SDS011;9099;47.958;11.366;2023-03-31T00:23:18;3.42;;;3.15;;
17947;SDS011;9099;47.958;11.366;2023-03-31T00:25:53;4.78;;;3.08;;
17947;SDS011;9099;47.958;11.366;2023-03-31T00:28:20;5.97;;;3.20;;
17947;SDS011;9099;47.958;11.366;2023-03-31T00:30:47;5.35;;;3.38;;
17947;SDS011;9099;47.958;11.366;2023-03-31T00:33:15;3.60;;;3.00;;
17947;SDS011;9099;47.958;11.366;2023-03-31T00:35:42;3.53;;;2.88;;
17947;SDS011;9099;47.958;11.366;2023-03-31T00:38:10;4.68;;;3.10;;
17947;SDS011;9099;47.958;11.366;2023-03-31T00:40:42;2.95;;;2.75;;
17947;SDS011;9099;47.958;11.366;2023-03-31T00:43:16;4.57;;;2.95;;
17947;SDS011;9099;47.958;11.366;2023-03-31T00:45:52;3.70;;;3.28;;
17947;SDS011;9099;47.958;11.366;2023-03-31T00:48:20;3.55;;;2.80;;
17947;SDS011;9099;47.958;11.366;2023-03-31T00:50:52;3.13;;;2.53;;
17947;SDS011;9099;47.958;11.366;2023-03-31T00:53:21;5.97;;;3.28;;
17947;SDS011;9099;47.958;11.366;2023-03-31T00:55:52;3.00;;;2.70;;
17947;SDS011;9099;47.958;11.366;2023-03-31T00:58:23;3.17;;;2.90;;
17947;SDS011;9099;47.958;11.366;2023-03-31T01:00:53;3.10;;;2.90;;
17947;SDS011;9099;47.958;11.366;2023-03-31T01:03:21;4.60;;;2.70;;
17947;SDS011;9099;47.958;11.366;2023-03-31T01:05:49;3.53;;;2.58;;
17947;SDS011;9099;47.958;11.366;2023-03-31T01:08:20;3.72;;;3.10;;
17947;SDS011;9099;47.958;11.366;2023-03-31T01:10:52;3.45;;;3.10;;
17947;SDS011;9099;47.958;11.366;2023-03-31T01:13:20;3.22;;;2.95;;
17947;SDS011;9099;47.958;11.366;2023-03-31T01:15:49;3.03;;;2.80;;
17947;SDS011;9099;47.958;11.366;2023-03-31T01:18:16;3.58;;;3.28;;
17947;SDS011;9099;47.958;11.366;2023-03-31T01:20:49;3.40;;;3.05;;
17947;SDS011;9099;47.958;11.366;2023-03-31T01:23:33;4.40;;;3.08;;
17947;SDS011;9099;47.958;11.366;2023-03-31T01:26:22;3.55;;;2.88;;
17947;SDS011;9099;47.958;11.366;2023-03-31T01:29:08;3.75;;;2.97;;
17947;SDS011;9099;47.958;11.366;2023-03-31T01:31:57;3.55;;;2.95;;
17947;SDS011;9099;47.958;11.366;2023-03-31T01:38:01;5.03;;;3.03;;
17947;SDS011;9099;47.958;11.366;2023-03-31T01:40:52;3.72;;;2.97;;
17947;SDS011;9099;47.958;11.366;2023-03-31T01:43:40;3.13;;;2.83;;
17947;SDS011;9099;47.958;11.366;2023-03-31T01:46:15;3.67;;;3.38;;
17947;SDS011;9099;47.958;11.366;2023-03-31T01:48:50;3.90;;;3.47;;
17947;SDS011;9099;47.958;11.366;2023-03-31T01:51:26;5.68;;;3.53;;
17947;SDS011;9099;47.958;11.366;2023-03-31T01:54:00;5.35;;;3.63;;
17947;SDS011;9099;47.958;11.366;2023-03-31T01:56:36;4.85;;;3.63;;
17947;SDS011;9099;47.958;11.366;2023-03-31T01:59:07;4.25;;;3.45;;
17947;SDS011;9099;47.958;11.366;2023-03-31T02:01:39;3.95;;;3.60;;
17947;SDS011;9099;47.958;11.366;2023-03-31T02:04:12;4.03;;;3.45;;
17947;SDS011;9099;47.958;11.366;2023-03-31T02:06:44;4.00;;;3.60;;
17947;SDS011;9099;47.958;11.366;2023-03-31T02:09:18;6.20;;;3.53;;
17947;SDS011;9099;47.958;11.366;2023-03-31T02:11:49;4.25;;;3.80;;
17947;SDS011;9099;47.958;11.366;2023-03-31T02:14:19;3.75;;;3.08;;
17947;SDS011;9099;47.958;11.366;2023-03-31T02:16:51;4.43;;;3.67;;
17947;SDS011;9099;47.958;11.366;2023-03-31T02:19:23;3.85;;;3.55;;
17947;SDS011;9099;47.958;11.366;2023-03-31T02:21:55;4.05;;;3.65;;
17947;SDS011;9099;47.958;11.366;2023-03-31T02:24:23;3.72;;;3.42;;
17947;SDS011;9099;47.958;11.366;2023-03-31T02:26:56;4.40;;;4.00;;
17947;SDS011;9099;47.958;11.366;2023-03-31T02:29:28;3.55;;;3.25;;
17947;SDS011;9099;47.958;11.366;2023-03-31T02:31:57;3.72;;;3.42;;
17947;SDS011;9099;47.958;11.366;2023-03-31T02:34:28;5.20;;;3.80;;
17947;SDS011;9099;47.958;11.366;2023-03-31T02:36:55;5.43;;;4.05;;
17947;SDS011;9099;47.958;11.366;2023-03-31T02:39:23;4.68;;;4.13;;
17947;SDS011;9099;47.958;11.366;2023-03-31T02:41:51;4.57;;;3.70;;
17947;SDS011;9099;47.958;11.366;2023-03-31T02:44:20;3.63;;;3.33;;
17947;SDS011;9099;47.958;11.366;2023-03-31T02:46:48;3.55;;;3.25;;
17947;SDS011;9099;47.958;11.366;2023-03-31T02:49:15;4.20;;;3.80;;
17947;SDS011;9099;47.958;11.366;2023-03-31T02:51:49;4.32;;;3.67;;
17947;SDS011;9099;47.958;11.366;2023-03-31T03:01:04;3.53;;;3.22;;
17947;SDS011;9099;47.958;11.366;2023-03-31T03:03:39;5.18;;;3.67;;
17947;SDS011;9099;47.958;11.366;2023-03-31T03:06:15;5.75;;;4.00;;
17947;SDS011;9099;47.958;11.366;2023-03-31T03:08:57;6.28;;;4.10;;
17947;SDS011;9099;47.958;11.366;2023-03-31T03:11:31;3.72;;;3.30;;
17947;SDS011;9099;47.958;11.366;2023-03-31T03:14:06;3.80;;;3.42;;
17947;SDS011;9099;47.958;11.366;2023-03-31T03:16:43;3.25;;;3.05;;
17947;SDS011;9099;47.958;11.366;2023-03-31T03:19:17;5.57;;;3.50;;
17947;SDS011;9099;47.958;11.366;2023-03-31T03:21:45;4.43;;;3.38;;
17947;SDS011;9099;47.958;11.366;2023-03-31T03:24:12;4.97;;;3.47;;
17947;SDS011;9099;47.958;11.366;2023-03-31T03:26:41;3.25;;;2.95;;
17947;SDS011;9099;47.958;11.366;2023-03-31T03:29:08;4.32;;;3.33;;
17947;SDS011;9099;47.958;11.366;2023-03-31T03:31:37;3.65;;;3.30;;
17947;SDS011;9099;47.958;11.366;2023-03-31T03:34:05;4.47;;;3.25;;
17947;SDS011;9099;47.958;11.366;2023-03-31T03:36:33;4.55;;;3.42;;
17947;SDS011;9099;47.958;11.366;2023-03-31T03:39:01;4.93;;;3.30;;
17947;SDS011;9099;47.958;11.366;2023-03-31T03:41:28;4.80;;;3.10;;
17947;SDS011;9099;47.958;11.366;2023-03-31T03:43:57;3.17;;;2.90;;
17947;SDS011;9099;47.958;11.366;2023-03-31T03:46:24;3.33;;;3.03;;
17947;SDS011;9099;47.958;11.366;2023-03-31T03:48:51;4.82;;;3.55;;
17947;SDS011;9099;47.958;11.366;2023-03-31T03:51:19;4.75;;;3.58;;
17947;SDS011;9099;47.958;11.366;2023-03-31T03:53:46;3.97;;;3.55;;
17947;SDS011;9099;47.958;11.366;2023-03-31T03:56:13;4.45;;;3.50;;
17947;SDS011;9099;47.958;11.366;2023-03-31T03:58:40;3.42;;;3.10;;
17947;SDS011;9099;47.958;11.366;2023-03-31T04:01:07;4.03;;;3.63;;
17947;SDS011;9099;47.958;11.366;2023-03-31T04:03:34;3.00;;;2.65;;
17947;SDS011;9099;47.958;11.366;2023-03-31T04:06:00;3.55;;;2.90;;
17947;SDS011;9099;47.958;11.366;2023-03-31T04:08:29;3.78;;;3.47;;
17947;SDS011;9099;47.958;11.366;2023-03-31T04:10:56;3.40;;;3.10;;
17947;SDS011;9099;47.958;11.366;2023-03-31T04:13:22;4.13;;;3.22;;
17947;SDS011;9099;47.958;11.366;2023-03-31T04:15:49;3.53;;;3.15;;
17947;SDS011;9099;47.958;11.366;2023-03-31T04:18:16;3.63;;;2.83;;
17947;SDS011;9099;47.958;11.366;2023-03-31T04:20:46;4.28;;;3.15;;
17947;SDS011;9099;47.958;11.366;2023-03-31T04:23:19;4.07;;;3.42;;
17947;SDS011;9099;47.958;11.366;2023-03-31T04:25:49;4.57;;;3.50;;
17947;SDS011;9099;47.958;11.366;2023-03-31T04:28:16;4.13;;;3.72;;
17947;SDS011;9099;47.958;11.366;2023-03-31T04:30:44;4.85;;;3.53;;
17947;SDS011;9099;47.958;11.366;2023-03-31T04:33:11;5.50;;;3.88;;
17947;SDS011;9099;47.958;11.366;2023-03-31T04:35:39;4.30;;;3.55;;
17947;SDS011;9099;47.958;11.366;2023-03-31T04:38:13;4.05;;;2.85;;
17947;SDS011;9099;47.958;11.366;2023-03-31T04:40:42;4.63;;;3.38;;
17947;SDS011;9099;47.958;11.366;2023-03-31T04:43:11;5.20;;;3.65;;
17947;SDS011;9099;47.958;11.366;2023-03-31T04:45:39;5.18;;;3.22;;
17947;SDS011;9099;47.958;11.366;2023-03-31T04:48:06;3.55;;;3.20;;
17947;SDS011;9099;47.958;11.366;2023-03-31T04:50:32;3.17;;;2.97;;
17947;SDS011;9099;47.958;11.366;2023-03-31T04:52:59;3.83;;;3.50;;
17947;SDS011;9099;47.958;11.366;2023-03-31T04:55:26;5.45;;;3.85;;
17947;SDS011;9099;47.958;11.366;2023-03-31T04:57:53;5.53;;;3.60;;
17947;SDS011;9099;47.958;11.366;2023-03-31T05:00:22;3.72;;;3.42;;
17947;SDS011;9099;47.958;11.366;2023-03-31T05:02:50;4.57;;;4.18;;
17947;SDS011;9099;47.958;11.366;2023-03-31T05:05:17;5.05;;;3.97;;
17947;SDS011;9099;47.958;11.366;2023-03-31T05:07:44;4.72;;;4.05;;
17947;SDS011;9099;47.958;11.366;2023-03-31T05:10:11;5.88;;;4.35;;
17947;SDS011;9099;47.958;11.366;2023-03-31T05:12:38;7.28;;;4.68;;
17947;SDS011;9099;47.958;11.366;2023-03-31T05:15:05;5.72;;;4.07;;
17947;SDS011;9099;47.958;11.366;2023-03-31T05:17:34;5.25;;;4.72;;
17947;SDS011;9099;47.958;11.366;2023-03-31T05:20:02;7.85;;;4.90;;
17947;SDS011;9099;47.958;11.366;2023-03-31T05:22:32;7.68;;;4.30;;
17947;SDS011;9099;47.958;11.366;2023-03-31T05:24:59;5.45;;;4.55;;
17947;SDS011;9099;47.958;11.366;2023-03-31T05:27:26;6.43;;;4.40;;
17947;SDS011;9099;47.958;11.366;2023-03-31T05:29:53;5.47;;;4.32;;
17947;SDS011;9099;47.958;11.366;2023-03-31T05:32:20;5.30;;;4.10;;
17947;SDS011;9099;47.958;11.366;2023-03-31T05:34:48;4.70;;;4.30;;
17947;SDS011;9099;47.958;11.366;2023-03-31T05:37:16;6.43;;;4.47;;
17947;SDS011;9099;47.958;11.366;2023-03-31T05:39:43;7.90;;;4.88;;
17947;SDS011;9099;47.958;11.366;2023-03-31T05:42:10;8.50;;;4.60;;
17947;SDS011;9099;47.958;11.366;2023-03-31T05:44:37;7.15;;;4.75;;
17947;SDS011;9099;47.958;11.366;2023-03-31T05:47:04;6.13;;;4.60;;
17947;SDS011;9099;47.958;11.366;2023-03-31T05:49:31;5.90;;;3.85;;
17947;SDS011;9099;47.958;11.366;2023-03-31T05:51:59;5.13;;;3.95;;
17947;SDS011;9099;47.958;11.366;2023-03-31T05:54:26;5.78;;;4.32;;
17947;SDS011;9099;47.958;11.366;2023-03-31T05:56:53;4.90;;;4.28;;
17947;SDS011;9099;47.958;11.366;2023-03-31T05:59:20;5.95;;;4.45;;
17947;SDS011;9099;47.958;11.366;2023-03-31T06:01:46;6.45;;;4.22;;
17947;SDS011;9099;47.958;11.366;2023-03-31T06:04:13;4.40;;;4.00;;
17947;SDS011;9099;47.958;11.366;2023-03-31T06:06:40;4.40;;;3.92;;
17947;SDS011;9099;47.958;11.366;2023-03-31T06:09:09;5.68;;;3.97;;
17947;SDS011;9099;47.958;11.366;2023-03-31T06:11:37;4.20;;;3.80;;
17947;SDS011;9099;47.958;11.366;2023-03-31T06:14:04;5.03;;;3.97;;
17947;SDS011;9099;47.958;11.366;2023-03-31T06:16:31;5.70;;;3.55;;
17947;SDS011;9099;47.958;11.366;2023-03-31T06:18:58;5.85;;;3.75;;
17947;SDS011;9099;47.958;11.366;2023-03-31T06:21:25;8.02;;;4.40;;
17947;SDS011;9099;47.958;11.366;2023-03-31T06:23:52;4.35;;;3.92;;
17947;SDS011;9099;47.958;11.366;2023-03-31T06:26:20;5.07;;;3.53;;
17947;SDS011;9099;47.958;11.366;2023-03-31T06:28:47;4.13;;;3.65;;
17947;SDS011;9099;47.958;11.366;2023-03-31T06:31:15;4.68;;;3.58;;
17947;SDS011;9099;47.958;11.366;2023-03-31T06:33:44;4.35;;;3.95;;
17947;SDS011;9099;47.958;11.366;2023-03-31T06:36:12;4.38;;;3.97;;
17947;SDS011;9099;47.958;11.366;2023-03-31T06:38:40;5.90;;;4.07;;
17947;SDS011;9099;47.958;11.366;2023-03-31T06:41:08;4.95;;;3.75;;
17947;SDS011;9099;47.958;11.366;2023-03-31T06:43:39;4.10;;;3.70;;
17947;SDS011;9099;47.958;11.366;2023-03-31T06:46:06;5.32;;;3.97;;
17947;SDS011;9099;47.958;11.366;2023-03-31T06:48:33;5.03;;;3.70;;
17947;SDS011;9099;47.958;11.366;2023-03-31T06:51:00;4.53;;;4.15;;
17947;SDS011;9099;47.958;11.366;2023-03-31T06:53:29;4.20;;;3.70;;
17947;SDS011;9099;47.958;11.366;2023-03-31T06:55:56;4.22;;;3.90;;
17947;SDS011;9099;47.958;11.366;2023-03-31T06:58:23;6.60;;;4.30;;
17947;SDS011;9099;47.958;11.366;2023-03-31T07:00:51;5.28;;;3.95;;
17947;SDS011;9099;47.958;11.366;2023-03-31T07:03:18;3.63;;;3.38;;
17947;SDS011;9099;47.958;11.366;2023-03-31T07:05:47;3.92;;;3.20;;
17947;SDS011;9099;47.958;11.366;2023-03-31T07:08:14;3.78;;;3.35;;
17947;SDS011;9099;47.958;11.366;2023-03-31T07:10:41;4.38;;;2.90;;
17947;SDS011;9099;47.958;11.366;2023-03-31T07:13:11;6.03;;;3.53;;
17947;SDS011;9099;47.958;11.366;2023-03-31T07:15:38;5.45;;;4.30;;
17947;SDS011;9099;47.958;11.366;2023-03-31T07:18:06;4.38;;;3.92;;
17947;SDS011;9099;47.958;11.366;2023-03-31T07:20:33;4.05;;;3.63;;
17947;SDS011;9099;47.958;11.366;2023-03-31T07:23:02;10.65;;;4.03;;
17947;SDS011;9099;47.958;11.366;2023-03-31T07:25:30;3.80;;;3.50;;
17947;SDS011;9099;47.958;11.366;2023-03-31T07:27:57;5.22;;;3.47;;
17947;SDS011;9099;47.958;11.366;2023-03-31T07:30:24;6.50;;;3.60;;
17947;SDS011;9099;47.958;11.366;2023-03-31T07:32:51;4.82;;;3.47;;
17947;SDS011;9099;47.958;11.366;2023-03-31T07:35:20;5.45;;;3.78;;
17947;SDS011;9099;47.958;11.366;2023-03-31T07:37:48;4.65;;;3.40;;
17947;SDS011;9099;47.958;11.366;2023-03-31T07:40:16;4.22;;;3.33;;
17947;SDS011;9099;47.958;11.366;2023-03-31T07:42:44;6.15;;;4.20;;
17947;SDS011;9099;47.958;11.366;2023-03-31T07:45:13;3.92;;;3.53;;
17947;SDS011;9099;47.958;11.366;2023-03-31T07:47:40;4.65;;;4.05;;
17947;SDS011;9099;47.958;11.366;2023-03-31T07:50:08;9.00;;;3.80;;
17947;SDS011;9099;47.958;11.366;2023-03-31T07:52:36;4.45;;;3.80;;
17947;SDS011;9099;47.958;11.366;2023-03-31T07:55:03;7.40;;;4.15;;
17947;SDS011;9099;47.958;11.366;2023-03-31T07:57:31;4.97;;;4.28;;
17947;SDS011;9099;47.958;11.366;2023-03-31T07:59:58;5.32;;;3.90;;
17947;SDS011;9099;47.958;11.366;2023-03-31T08:02:26;5.45;;;4.03;;
17947;SDS011;9099;47.958;11.366;2023-03-31T08:04:53;5.40;;;3.85;;
17947;SDS011;9099;47.958;11.366;2023-03-31T08:07:20;4.63;;;4.22;;
17947;SDS011;9099;47.958;11.366;2023-03-31T08:09:48;4.68;;;4.20;;
17947;SDS011;9099;47.958;11.366;2023-03-31T08:12:15;4.68;;;3.90;;
17947;SDS011;9099;47.958;11.366;2023-03-31T08:14:42;5.82;;;4.25;;
17947;SDS011;9099;47.958;11.366;2023-03-31T08:17:09;4.72;;;4.28;;
17947;SDS011;9099;47.958;11.366;2023-03-31T08:19:36;5.38;;;3.92;;
17947;SDS011;9099;47.958;11.366;2023-03-31T08:22:03;4.05;;;3.75;;
17947;SDS011;9099;47.958;11.366;2023-03-31T08:24:30;4.50;;;4.13;;
17947;SDS011;9099;47.958;11.366;2023-03-31T08:26:58;4.50;;;4.10;;
17947;SDS011;9099;47.958;11.366;2023-03-31T08:29:25;5.53;;;4.50;;
17947;SDS011;9099;47.958;11.366;2023-03-31T08:31:52;4.88;;;4.47;;
17947;SDS011;9099;47.958;11.366;2023-03-31T08:34:19;6.13;;;4.15;;
17947;SDS011;9099;47.958;11.366;2023-03-31T08:36:46;4.65;;;4.10;;
17947;SDS011;9099;47.958;11.366;2023-03-31T08:39:13;5.70;;;4.07;;
17947;SDS011;9099;47.958;11.366;2023-03-31T08:41:43;6.43;;;3.97;;
17947;SDS011;9099;47.958;11.366;2023-03-31T08:44:19;3.47;;;3.15;;
17947;SDS011;9099;47.958;11.366;2023-03-31T08:46:50;3.63;;;3.20;;
17947;SDS011;9099;47.958;11.366;2023-03-31T08:49:20;4.55;;;3.72;;
17947;SDS011;9099;47.958;11.366;2023-03-31T08:51:49;3.95;;;3.15;;
17947;SDS011;9099;47.958;11.366;2023-03-31T08:54:19;4.40;;;4.00;;
17947;SDS011;9099;47.958;11.366;2023-03-31T08:56:51;5.30;;;4.15;;
17947;SDS011;9099;47.958;11.366;2023-03-31T08:59:22;4.00;;;3.67;;
17947;SDS011;9099;47.958;11.366;2023-03-31T09:01:54;4.18;;;3.60;;
17947;SDS011;9099;47.958;11.366;2023-03-31T09:04:42;4.00;;;3.42;;
17947;SDS011;9099;47.958;11.366;2023-03-31T09:07:18;6.50;;;4.72;;
17947;SDS011;9099;47.958;11.366;2023-03-31T09:09:54;5.43;;;3.97;;
17947;SDS011;9099;47.958;11.366;2023-03-31T09:12:29;4.75;;;3.30;;
17947;SDS011;9099;47.958;11.366;2023-03-31T09:15:03;3.20;;;2.90;;
17947;SDS011;9099;47.958;11.366;2023-03-31T09:17:36;2.50;;;2.30;;
17947;SDS011;9099;47.958;11.366;2023-03-31T09:20:10;4.22;;;2.45;;
17947;SDS011;9099;47.958;11.366;2023-03-31T09:22:42;2.47;;;2.28;;
17947;SDS011;9099;47.958;11.366;2023-03-31T09:25:12;3.92;;;2.30;;
17947;SDS011;9099;47.958;11.366;2023-03-31T09:27:43;2.00;;;1.88;;
17947;SDS011;9099;47.958;11.366;2023-03-31T09:30:13;3.28;;;2.30;;
17947;SDS011;9099;47.958;11.366;2023-03-31T09:32:44;2.50;;;2.35;;
17947;SDS011;9099;47.958;11.366;2023-03-31T09:35:14;2.33;;;2.20;;
17947;SDS011;9099;47.958;11.366;2023-03-31T09:37:44;3.03;;;1.88;;
17947;SDS011;9099;47.958;11.366;2023-03-31T09:40:13;2.63;;;2.08;;
17947;SDS011;9099;47.958;11.366;2023-03-31T09:42:42;2.05;;;1.80;;
17947;SDS011;9099;47.958;11.366;2023-03-31T09:45:15;2.38;;;1.98;;
17947;SDS011;9099;47.958;11.366;2023-03-31T09:47:44;2.05;;;1.88;;
17947;SDS011;9099;47.958;11.366;2023-03-31T09:50:13;3.50;;;2.00;;
17947;SDS011;9099;47.958;11.366;2023-03-31T09:52:42;2.40;;;1.85;;
17947;SDS011;9099;47.958;11.366;2023-03-31T09:55:16;2.63;;;2.05;;
17947;SDS011;9099;47.958;11.366;2023-03-31T09:57:46;2.10;;;1.90;;
17947;SDS011;9099;47.958;11.366;2023-03-31T10:00:14;3.08;;;1.92;;
17947;SDS011;9099;47.958;11.366;2023-03-31T10:02:46;2.45;;;2.25;;
17947;SDS011;9099;47.958;11.366;2023-03-31T10:05:21;2.30;;;2.10;;
17947;SDS011;9099;47.958;11.366;2023-03-31T10:07:53;2.10;;;1.80;;
17947;SDS011;9099;47.958;11.366;2023-03-31T10:10:45;2.22;;;2.00;;
17947;SDS011;9099;47.958;11.366;2023-03-31T10:13:15;2.72;;;1.98;;
17947;SDS011;9099;47.958;11.366;2023-03-31T10:15:46;1.88;;;1.75;;
17947;SDS011;9099;47.958;11.366;2023-03-31T10:18:18;2.72;;;1.52;;
17947;SDS011;9099;47.958;11.366;2023-03-31T10:20:49;2.63;;;2.33;;
17947;SDS011;9099;47.958;11.366;2023-03-31T10:23:17;2.03;;;1.92;;
17947;SDS011;9099;47.958;11.366;2023-03-31T10:25:50;2.38;;;2.00;;
17947;SDS011;9099;47.958;11.366;2023-03-31T10:28:17;1.98;;;1.85;;
17947;SDS011;9099;47.958;11.366;2023-03-31T10:30:48;2.03;;;1.90;;
17947;SDS011;9099;47.958;11.366;2023-03-31T10:33:17;2.38;;;2.17;;
17947;SDS011;9099;47.958;11.366;2023-03-31T10:35:46;2.53;;;2.00;;
17947;SDS011;9099;47.958;11.366;2023-03-31T10:38:16;2.22;;;2.03;;
17947;SDS011;9099;47.958;11.366;2023-03-31T10:40:50;3.90;;;2.15;;
17947;SDS011;9099;47.958;11.366;2023-03-31T10:43:20;4.03;;;3.00;;
17947;SDS011;9099;47.958;11.366;2023-03-31T10:45:52;3.67;;;2.72;;
17947;SDS011;9099;47.958;11.366;2023-03-31T10:48:22;3.00;;;2.50;;
17947;SDS011;9099;47.958;11.366;2023-03-31T10:50:51;3.22;;;2.72;;
17947;SDS011;9099;47.958;11.366;2023-03-31T10:53:18;3.95;;;3.00;;
17947;SDS011;9099;47.958;11.366;2023-03-31T10:55:50;4.32;;;3.20;;
17947;SDS011;9099;47.958;11.366;2023-03-31T10:58:35;3.80;;;3.40;;
17947;SDS011;9099;47.958;11.366;2023-03-31T11:01:20;3.97;;;3.20;;
17947;SDS011;9099;47.958;11.366;2023-03-31T11:06:54;3.67;;;3.13;;
17947;SDS011;9099;47.958;11.366;2023-03-31T11:09:33;3.47;;;3.17;;
17947;SDS011;9099;47.958;11.366;2023-03-31T11:12:10;3.45;;;2.22;;
17947;SDS011;9099;47.958;11.366;2023-03-31T11:14:47;2.95;;;2.75;;
17947;SDS011;9099;47.958;11.366;2023-03-31T11:17:24;3.33;;;2.53;;
17947;SDS011;9099;47.958;11.366;2023-03-31T11:20:01;2.38;;;1.75;;
17947;SDS011;9099;47.958;11.366;2023-03-31T11:22:39;2.15;;;1.67;;
17947;SDS011;9099;47.958;11.366;2023-03-31T11:25:15;1.58;;;1.48;;
17947;SDS011;9099;47.958;11.366;2023-03-31T11:27:49;1.85;;;1.40;;
17947;SDS011;9099;47.958;11.366;2023-03-31T11:30:29;2.72;;;1.52;;
17947;SDS011;9099;47.958;11.366;2023-03-31T11:33:10;1.40;;;1.30;;
17947;SDS011;9099;47.958;11.366;2023-03-31T11:35:50;1.42;;;1.25;;
17947;SDS011;9099;47.958;11.366;2023-03-31T11:38:31;0.82;;;0.80;;
17947;SDS011;9099;47.958;11.366;2023-03-31T11:41:07;1.63;;;0.88;;
17947;SDS011;9099;47.958;11.366;2023-03-31T11:43:38;1.05;;;1.00;;
17947;SDS011;9099;47.958;11.366;2023-03-31T11:46:08;1.40;;;1.08;;
17947;SDS011;9099;47.958;11.366;2023-03-31T11:48:42;1.67;;;1.00;;
17947;SDS011;9099;47.958;11.366;2023-03-31T11:51:13;1.40;;;1.30;;
17947;SDS011;9099;47.958;11.366;2023-03-31T11:53:43;2.80;;;1.27;;
17947;SDS011;9099;47.958;11.366;2023-03-31T11:56:11;1.95;;;1.60;;
17947;SDS011;9099;47.958;11.366;2023-03-31T11:58:40;1.50;;;1.40;;
17947;SDS011;9099;47.958;11.366;2023-03-31T12:01:13;1.90;;;1.40;;
17947;SDS011;9099;47.958;11.366;2023-03-31T12:03:50;1.73;;;1.60;;
17947;SDS011;9099;47.958;11.366;2023-03-31T12:06:22;2.33;;;1.90;;
17947;SDS011;9099;47.958;11.366;2023-03-31T12:08:57;2.22;;;1.98;;
17947;SDS011;9099;47.958;11.366;2023-03-31T12:11:31;2.55;;;1.92;;
17947;SDS011;9099;47.958;11.366;2023-03-31T12:14:08;2.40;;;1.95;;
17947;SDS011;9099;47.958;11.366;2023-03-31T12:16:46;2.65;;;1.98;;
17947;SDS011;9099;47.958;11.366;2023-03-31T12:19:19;2.20;;;2.00;;
17947;SDS011;9099;47.958;11.366;2023-03-31T12:21:53;3.17;;;2.30;;
17947;SDS011;9099;47.958;11.366;2023-03-31T12:24:23;4.50;;;2.53;;
17947;SDS011;9099;47.958;11.366;2023-03-31T12:26:53;3.03;;;2.10;;
17947;SDS011;9099;47.958;11.366;2023-03-31T12:29:29;3.22;;;2.10;;
17947;SDS011;9099;47.958;11.366;2023-03-31T12:32:00;3.70;;;2.55;;
17947;SDS011;9099;47.958;11.366;2023-03-31T12:34:31;3.25;;;2.78;;
17947;SDS011;9099;47.958;11.366;2023-03-31T12:37:06;4.45;;;2.50;;
17947;SDS011;9099;47.958;11.366;2023-03-31T12:39:44;2.55;;;2.03;;
17947;SDS011;9099;47.958;11.366;2023-03-31T12:42:41;2.63;;;2.42;;
17947;SDS011;9099;47.958;11.366;2023-03-31T12:45:26;2.97;;;2.17;;
17947;SDS011;9099;47.958;11.366;2023-03-31T12:51:03;2.30;;;2.10;;
17947;SDS011;9099;47.958;11.366;2023-03-31T12:53:49;1.73;;;1.63;;
17947;SDS011;9099;47.958;11.366;2023-03-31T12:56:25;1.10;;;1.00;;
17947;SDS011;9099;47.958;11.366;2023-03-31T12:58:52;1.35;;;0.75;;
17947;SDS011;9099;47.958;11.366;2023-03-31T13:01:19;1.30;;;0.70;;
17947;SDS011;9099;47.958;11.366;2023-03-31T13:03:50;0.50;;;0.43;;
17947;SDS011;9099;47.958;11.366;2023-03-31T13:12:05;1.05;;;0.90;;
17947;SDS011;9099;47.958;11.366;2023-03-31T13:14:35;1.48;;;0.85;;
17947;SDS011;9099;47.958;11.366;2023-03-31T13:17:10;1.23;;;0.77;;
17947;SDS011;9099;47.958;11.366;2023-03-31T13:19:39;2.03;;;0.90;;
17947;SDS011;9099;47.958;11.366;2023-03-31T13:22:25;1.05;;;0.95;;
17947;SDS011;9099;47.958;11.366;2023-03-31T13:25:08;2.13;;;0.80;;
17947;SDS011;9099;47.958;11.366;2023-03-31T13:28:03;2.13;;;0.77;;
17947;SDS011;9099;47.958;11.366;2023-03-31T13:33:50;1.50;;;0.90;;
17947;SDS011;9099;47.958;11.366;2023-03-31T13:39:32;1.42;;;0.93;;
17947;SDS011;9099;47.958;11.366;2023-03-31T13:45:37;0.82;;;0.77;;
17947;SDS011;9099;47.958;11.366;2023-03-31T13:48:17;1.35;;;0.88;;
17947;SDS011;9099;47.958;11.366;2023-03-31T13:51:00;1.42;;;0.98;;
17947;SDS011;9099;47.958;11.366;2023-03-31T13:53:56;2.22;;;0.90;;
17947;SDS011;9099;47.958;11.366;2023-03-31T13:56:57;1.20;;;0.95;;
17947;SDS011;9099;47.958;11.366;2023-03-31T13:59:47;1.05;;;0.95;;
17947;SDS011;9099;47.958;11.366;2023-03-31T14:05:42;2.20;;;1.40;;
17947;SDS011;9099;47.958;11.366;2023-03-31T14:08:13;1.60;;;1.30;;
17947;SDS011;9099;47.958;11.366;2023-03-31T14:10:45;1.70;;;1.33;;
17947;SDS011;9099;47.958;11.366;2023-03-31T14:13:14;2.15;;;1.48;;
17947;SDS011;9099;47.958;11.366;2023-03-31T14:15:43;2.17;;;1.20;;
17947;SDS011;9099;47.958;11.366;2023-03-31T14:18:15;2.10;;;1.20;;
17947;SDS011;9099;47.958;11.366;2023-03-31T14:20:54;2.03;;;1.40;;
17947;SDS011;9099;47.958;11.366;2023-03-31T14:23:36;0.85;;;0.85;;
17947;SDS011;9099;47.958;11.366;2023-03-31T14:26:15;1.33;;;1.23;;
17947;SDS011;9099;47.958;11.366;2023-03-31T14:29:03;1.55;;;0.90;;
17947;SDS011;9099;47.958;11.366;2023-03-31T14:31:37;2.75;;;0.82;;
17947;SDS011;9099;47.958;11.366;2023-03-31T14:34:23;3.03;;;0.68;;
17947;SDS011;9099;47.958;11.366;2023-03-31T14:37:06;0.63;;;0.40;;
17947;SDS011;9099;47.958;11.366;2023-03-31T14:39:39;0.77;;;0.30;;
17947;SDS011;9099;47.958;11.366;2023-03-31T14:42:09;0.47;;;0.35;;
17947;SDS011;9099;47.958;11.366;2023-03-31T14:44:40;0.90;;;0.30;;
17947;SDS011;9099;47.958;11.366;2023-03-31T14:47:13;2.15;;;0.50;;
17947;SDS011;9099;47.958;11.366;2023-03-31T14:49:40;0.73;;;0.40;;
17947;SDS011;9099;47.958;11.366;2023-03-31T14:52:12;0.60;;;0.40;;
17947;SDS011;9099;47.958;11.366;2023-03-31T14:54:42;0.65;;;0.50;;
17947;SDS011;9099;47.958;11.366;2023-03-31T14:57:11;1.95;;;0.63;;
17947;SDS011;9099;47.958;11.366;2023-03-31T14:59:42;2.45;;;0.57;;
17947;SDS011;9099;47.958;11.366;2023-03-31T15:02:13;0.55;;;0.30;;
17947;SDS011;9099;47.958;11.366;2023-03-31T15:04:45;0.70;;;0.40;;
17947;SDS011;9099;47.958;11.366;2023-03-31T15:07:15;1.77;;;0.45;;
17947;SDS011;9099;47.958;11.366;2023-03-31T15:09:43;0.45;;;0.38;;
17947;SDS011;9099;47.958;11.366;2023-03-31T15:12:15;2.40;;;0.70;;
17947;SDS011;9099;47.958;11.366;2023-03-31T15:14:47;0.52;;;0.50;;
17947;SDS011;9099;47.958;11.366;2023-03-31T15:17:16;1.20;;;0.55;;
17947;SDS011;9099;47.958;11.366;2023-03-31T15:19:45;1.02;;;0.60;;
17947;SDS011;9099;47.958;11.366;2023-03-31T15:22:18;1.27;;;0.50;;
17947;SDS011;9099;47.958;11.366;2023-03-31T15:24:47;0.98;;;0.55;;
17947;SDS011;9099;47.958;11.366;2023-03-31T15:27:14;1.05;;;0.63;;
17947;SDS011;9099;47.958;11.366;2023-03-31T15:29:48;1.85;;;0.68;;
17947;SDS011;9099;47.958;11.366;2023-03-31T15:32:20;2.72;;;0.65;;
17947;SDS011;9099;47.958;11.366;2023-03-31T15:34:54;1.13;;;0.80;;
17947;SDS011;9099;47.958;11.366;2023-03-31T15:37:22;1.42;;;0.70;;
17947;SDS011;9099;47.958;11.366;2023-03-31T15:39:53;1.45;;;0.73;;
17947;SDS011;9099;47.958;11.366;2023-03-31T15:42:22;1.17;;;0.77;;
17947;SDS011;9099;47.958;11.366;2023-03-31T15:44:54;0.60;;;0.60;;
17947;SDS011;9099;47.958;11.366;2023-03-31T15:47:23;0.68;;;0.68;;